Flight Track Log - Related Links

Times and Time Zones

All times are in EST time to prevent confusion due to time zone crossing. See the N559LC flight status page for this flight to view local times or setup timezone preferences in your user account.

Time Position Orientation Groundspeed Altitude Reporting Facility
EST Latitude Longitude Course Direction KTS MPH feet Rate Location/Type
Fri 08:26:41 PM 42.6858 -83.5036 297° West 226 260 3,600  Level Cleveland Center
Fri 08:27:09 PM 42.7106 -83.4775 38° Northeast 244 281 4,900 3,934 Climbing Cleveland Center
Fri 08:27:42 PM 42.7156 -83.4169 84° East 281 323 7,600 4,033 Climbing Cleveland Center
Fri 08:28:10 PM 42.7183 -83.3667 86° East 276 318 9,000 2,600 Climbing Cleveland Center
Fri 08:29:12 PM 42.7272 -83.2497 84° East 320 368 11,500 2,565 Climbing Cleveland Center
Fri 08:30:14 PM 42.7067 -83.1094 101° East 378 435 14,300 2,903 Climbing Cleveland Center
Fri 08:31:16 PM 42.6444 -82.9853 124° Southeast 394 453 17,500 3,048 Climbing Cleveland Center
Fri 08:32:18 PM 42.5803 -82.8594 125° Southeast 402 463 20,600 2,806 Climbing Cleveland Center
Fri 08:33:20 PM 42.5122 -82.7286 125° Southeast 417 480 23,300 2,371 Climbing Cleveland Center
Fri 08:34:22 PM 42.4425 -82.5931 125° Southeast 434 499 25,500 2,293 Climbing Cleveland Center
Fri 08:35:23 PM 42.3725 -82.4003 116° Southeast 480 552 28,000 1,951 Climbing Cleveland Center
Fri 08:36:25 PM 42.3575 -82.2044 96° East 519 597 29,500 2,032 Climbing Cleveland Center
Fri 08:37:27 PM 42.3500 -81.9989 93° East 539 620 32,200 3,145 Climbing Cleveland Center
Fri 08:38:29 PM 42.3422 -81.8075 93° East 508 585 36,000 2,806 Climbing Cleveland Center
Fri 08:39:31 PM 42.3339 -81.6267 94° East 481 554 38,000 1,161 Climbing Cleveland Center
Fri 08:40:33 PM 42.3247 -81.4503 94° East 469 540 38,400 488 Climbing Cleveland Center
Fri 08:41:34 PM 42.3164 -81.2639 93° East 484 557 39,000 585 Climbing Cleveland Center
Fri 08:42:36 PM 42.3064 -81.0758 94° East 495 570 39,600 484 Climbing Cleveland Center
Fri 08:43:38 PM 42.2953 -80.8547 94° East 500 575 40,000 194 Climbing Cleveland Center
Fri 08:44:40 PM 42.2850 -80.6644 94° East 503 579 40,000  Level Cleveland Center
Fri 08:45:42 PM 42.2742 -80.4717 94° East 508 585 40,000  Level Cleveland Center
Fri 08:46:44 PM 42.2483 -80.2753 100° East 524 603 40,000  Level Cleveland Center
Fri 08:47:46 PM 42.2153 -80.0819 103° East 523 602 40,000  Level Cleveland Center
Fri 08:48:48 PM 42.1842 -79.9050 103° East 521 600 40,000  Level Cleveland Center
Fri 08:49:50 PM 42.1444 -79.6758 103° East 524 603 40,000  Level Cleveland Center
Fri 08:50:51 PM 42.1117 -79.4886 103° East 518 596 40,000  Level Cleveland Center
Fri 08:51:53 PM 42.0792 -79.2986 103° East 520 598 40,000  Level Cleveland Center
Fri 08:52:55 PM 42.0447 -79.1097 104° East 521 600 40,000  Level Cleveland Center
Fri 08:53:57 PM 42.0119 -78.9214 103° East 519 597 40,000  Level Cleveland Center
Fri 08:54:59 PM 41.9783 -78.7342 104° East 516 594 40,000  Level Cleveland Center
Fri 08:56:01 PM 41.9436 -78.5442 104° East 522 601 40,000  Level Cleveland Center
Fri 08:57:03 PM 41.9025 -78.3183 104° East 520 598 40,000  Level Cleveland Center
Fri 08:58:04 PM 41.8661 -78.1294 104° East 521 600 40,000 -581 Level Cleveland Center
Fri 08:59:07 PM 41.8311 -77.9400 104° East 523 602 38,800 -1,632 Descending Cleveland Center
Fri 09:00:09 PM 41.7944 -77.7497 104° East 527 606 36,600 -1,839 Descending Cleveland Center
Fri 09:01:11 PM 41.7583 -77.5603 104° East 526 605 35,000 -780 Descending Cleveland Center
Fri 09:02:12 PM 41.7178 -77.3550 105° East 516 594 35,000 -683 Level Cleveland Center
Fri 09:03:14 PM 41.6811 -77.1692 105° East 518 596 33,600 -1,597 Descending Cleveland Center
Fri 09:04:16 PM 41.6275 -76.9681 110° East 579 666 31,700 -1,935 Descending Cleveland Center
Fri 09:05:18 PM 41.5697 -76.7547 110° East 561 646 29,600 -1,925 Descending Cleveland Center
Fri 09:06:30 PM 41.5125 -76.5417 110° East 543 625 27,400 -1,818 Descending New York Center
Fri 09:07:30 PM 41.4575 -76.3403 110° East 531 611 25,600 -1,800 Descending New York Center
Fri 09:08:30 PM 41.4072 -76.1675 111° Southeast 517 595 23,800 -1,750 Descending New York Center
Fri 09:09:30 PM 41.3606 -76.0006 110° East 497 572 22,100 -1,500 Descending New York Center
Fri 09:10:30 PM 41.3167 -75.8564 112° Southeast 486 559 20,800 -1,450 Descending New York Center
Fri 09:11:30 PM 41.2736 -75.6931 109° East 471 542 19,200 -2,200 Descending New York Center
Fri 09:12:30 PM 41.2217 -75.5347 114° Southeast 466 536 16,400 -2,750 Descending New York Center
Fri 09:13:30 PM 41.1733 -75.3908 114° Southeast 445 512 13,700 -2,750 Descending New York Center
Fri 09:14:30 PM 41.1247 -75.2442 114° Southeast 415 478 10,900 -2,450 Descending New York Center
Fri 09:15:30 PM 41.0856 -75.1233 113° Southeast 370 426 8,800 -2,050 Descending New York Center
Fri 09:16:30 PM 41.0581 -75.0225 110° East 333 383 6,800 -1,350 Descending New York Center
Fri 09:17:30 PM 41.0453 -74.9117 99° East 308 354 6,100 -450 Descending New York Center
Fri 09:18:30 PM 41.0303 -74.8061 101° East 297 342 5,900 -1,000 Descending New York Center
Fri 09:19:30 PM 41.0153 -74.6925 100° East 291 335 4,100 -1,400 Descending New York Center
Fri 09:20:30 PM 41.0036 -74.6011 100° East 280 322 3,100 -500 Descending New York Center
Fri 09:21:30 PM 40.9942 -74.5044 97° East 255 293 3,100  Level New York Center
Fri 09:22:30 PM 40.9839 -74.4350 101° East 226 260 3,100 -400 Level New York Center
Fri 09:23:30 PM 40.9569 -74.3650 117° Southeast 207 238 2,300 -645 Descending New York Center
Fri 09:24:03 PM 40.9333 -74.3500 154° Southeast 169 194 2,100 -207 Descending New York TRACON
Fri 09:24:57 PM 40.9000 -74.3500 180° South 164 189 2,000 -400 Descending New York TRACON
Fri 09:26:03 PM 40.8500 -74.3667 194° South 139 160 1,300 -476 Descending New York TRACON
Fri 09:27:03 PM 40.8167 -74.3833 201° Southwest 132 152 1,000 -300 Descending New York TRACON
Fri 09:30:00 PM 40.7833 -74.4000 128° Southeast  Level FlightAware Approximate
Fri 09:37:00 PM 40.7993 -74.4149 128° Southeast  Level Estimated

Login

Don't have an account? Register now (free) for customized features, flight alerts, and more!